Time;durP1;ratioP1;P1;durP2;ratioP2;P2;SDS_P1;SDS_P2;PMS_P1;PMS_P2;Temp;Humidity;BMP_temperature;BMP_pressure;BME280_temperature;BME280_humidity;BME280_pressure;Samples;Min_cycle;Max_cycle;Signal;HPM_P1;HPM_P2
2023/09/17 00:02:16;;;;;;;12.15;6.75;;;;;;;;;;4972625;28;20045;-68
2023/09/17 00:04:42;;;;;;;9.63;6.53;;;;;;;;;;4976748;28;20042;-68
2023/09/17 00:07:07;;;;;;;12.27;6.63;;;;;;;;;;4976627;28;20034;-68
2023/09/17 00:09:32;;;;;;;11.23;7.20;;;;;;;;;;4970893;28;20049;-68
2023/09/17 00:11:58;;;;;;;10.27;6.22;;;;;;;;;;4976770;28;20018;-68
2023/09/17 00:14:23;;;;;;;11.68;6.88;;;;;;;;;;4973778;28;20061;-68
2023/09/17 00:16:49;;;;;;;11.07;6.35;;;;;;;;;;4975512;28;20108;-68
2023/09/17 00:19:14;;;;;;;10.43;6.10;;;;;;;;;;4974759;28;20041;-68
2023/09/17 00:21:40;;;;;;;8.82;6.35;;;;;;;;;;4977140;28;20460;-68
2023/09/17 00:24:06;;;;;;;11.93;6.80;;;;;;;;;;4974505;28;20110;-68
2023/09/17 00:26:31;;;;;;;10.20;6.30;;;;;;;;;;4975528;28;20057;-68
2023/09/17 00:28:57;;;;;;;14.48;6.82;;;;;;;;;;4968993;28;20062;-68
2023/09/17 00:31:22;;;;;;;12.88;7.20;;;;;;;;;;4974306;28;20453;-68
2023/09/17 00:33:47;;;;;;;14.40;7.07;;;;;;;;;;4998292;28;20045;-68
2023/09/17 00:36:13;;;;;;;11.65;7.13;;;;;;;;;;4974976;28;20027;-68
2023/09/17 00:38:38;;;;;;;12.48;6.97;;;;;;;;;;4971294;28;20042;-68
2023/09/17 00:41:03;;;;;;;14.85;7.72;;;;;;;;;;4976518;28;20052;-68
2023/09/17 00:43:30;;;;;;;12.90;7.90;;;;;;;;;;4977234;28;20149;-68
2023/09/17 00:45:55;;;;;;;14.30;7.45;;;;;;;;;;4980164;28;20035;-68
2023/09/17 00:48:21;;;;;;;14.35;7.35;;;;;;;;;;4977278;28;20038;-68
2023/09/17 00:50:47;;;;;;;12.55;7.60;;;;;;;;;;4972059;28;20042;-68
2023/09/17 00:53:13;;;;;;;10.38;6.60;;;;;;;;;;4973430;28;20230;-68
2023/09/17 00:55:40;;;;;;;10.88;7.35;;;;;;;;;;4974827;28;20038;-68
2023/09/17 00:58:06;;;;;;;12.75;7.47;;;;;;;;;;4975732;28;20046;-68
2023/09/17 01:00:35;;;;;;;13.45;7.97;;;;;;;;;;4974657;28;20571;-68
2023/09/17 01:03:02;;;;;;;14.65;8.20;;;;;;;;;;4974164;28;20019;-68
2023/09/17 01:05:36;;;;;;;12.57;7.93;;;;;;;;;;4978316;28;20026;-67
2023/09/17 01:08:09;;;;;;;13.65;7.88;;;;;;;;;;4981210;28;20527;-68
2023/09/17 01:10:39;;;;;;;14.88;8.23;;;;;;;;;;4991876;28;20538;-68
2023/09/17 01:13:05;;;;;;;14.55;8.27;;;;;;;;;;4976865;28;20039;-68
2023/09/17 01:15:30;;;;;;;14.95;8.48;;;;;;;;;;4985081;28;20103;-68
2023/09/17 01:17:57;;;;;;;15.48;8.65;;;;;;;;;;4977692;28;20037;-68
2023/09/17 01:20:30;;;;;;;13.98;8.73;;;;;;;;;;4977131;28;20038;-68
2023/09/17 01:23:08;;;;;;;15.45;8.70;;;;;;;;;;4976270;28;20413;-68
2023/09/17 01:25:54;;;;;;;15.57;8.40;;;;;;;;;;4969551;28;20610;-68
2023/09/17 01:28:21;;;;;;;15.63;8.73;;;;;;;;;;4972006;28;20551;-68
2023/09/17 01:30:46;;;;;;;14.38;8.57;;;;;;;;;;4970023;28;20053;-68
2023/09/17 01:33:12;;;;;;;14.07;8.52;;;;;;;;;;4976595;28;20030;-68
2023/09/17 01:35:57;;;;;;;18.92;9.35;;;;;;;;;;4976848;28;20031;-68
2023/09/17 01:38:30;;;;;;;15.73;9.18;;;;;;;;;;4968051;28;20038;-68
2023/09/17 01:40:56;;;;;;;15.90;9.30;;;;;;;;;;4975968;28;20046;-68
2023/09/17 01:43:23;;;;;;;20.38;9.50;;;;;;;;;;4977501;28;20109;-68
2023/09/17 01:45:50;;;;;;;17.38;9.18;;;;;;;;;;4979446;28;20046;-68
2023/09/17 01:48:16;;;;;;;20.92;9.82;;;;;;;;;;4975972;28;20457;-68
2023/09/17 01:50:43;;;;;;;13.70;8.77;;;;;;;;;;4973565;28;20050;-68
2023/09/17 01:53:11;;;;;;;21.85;10.07;;;;;;;;;;4976283;28;20137;-68
2023/09/17 01:55:37;;;;;;;17.20;9.95;;;;;;;;;;4976733;28;20097;-68
2023/09/17 01:58:03;;;;;;;16.55;9.88;;;;;;;;;;4978957;28;20042;-68
2023/09/17 02:00:28;;;;;;;17.33;9.38;;;;;;;;;;4976153;28;20133;-68
2023/09/17 02:02:54;;;;;;;17.05;9.35;;;;;;;;;;4982043;28;20034;-68
2023/09/17 02:05:24;;;;;;;14.57;9.18;;;;;;;;;;4979503;28;20053;-68
2023/09/17 02:07:50;;;;;;;19.80;10.48;;;;;;;;;;4977785;28;20137;-68
2023/09/17 02:10:15;;;;;;;16.77;9.48;;;;;;;;;;4975588;28;20137;-68
2023/09/17 02:12:41;;;;;;;15.45;9.40;;;;;;;;;;4979267;28;20097;-68
2023/09/17 02:15:09;;;;;;;18.40;9.65;;;;;;;;;;4976406;28;20045;-68
2023/09/17 02:17:34;;;;;;;16.42;10.05;;;;;;;;;;4995792;28;20559;-68
2023/09/17 02:20:00;;;;;;;29.83;14.63;;;;;;;;;;4976057;28;20077;-68
2023/09/17 02:22:25;;;;;;;18.48;9.98;;;;;;;;;;4980093;28;20050;-68
2023/09/17 02:24:50;;;;;;;23.00;10.15;;;;;;;;;;4974917;28;20463;-68
2023/09/17 02:27:16;;;;;;;25.15;10.50;;;;;;;;;;4977266;28;20033;-68
2023/09/17 02:29:42;;;;;;;22.35;10.50;;;;;;;;;;4977918;28;20050;-68
2023/09/17 02:32:07;;;;;;;18.23;9.52;;;;;;;;;;4977339;28;20078;-68
2023/09/17 02:34:33;;;;;;;20.90;10.75;;;;;;;;;;4978826;28;20101;-68
2023/09/17 02:36:58;;;;;;;17.48;10.70;;;;;;;;;;4977265;28;20432;-68
2023/09/17 02:39:23;;;;;;;19.35;10.13;;;;;;;;;;4985014;28;20049;-68
2023/09/17 02:41:49;;;;;;;16.02;9.82;;;;;;;;;;4986137;28;20069;-68
2023/09/17 02:44:14;;;;;;;17.65;9.60;;;;;;;;;;4987374;28;20037;-68
2023/09/17 02:46:40;;;;;;;16.77;9.02;;;;;;;;;;4980270;28;20047;-68
2023/09/17 02:49:06;;;;;;;18.52;10.15;;;;;;;;;;4977394;28;20656;-68
2023/09/17 02:51:31;;;;;;;20.05;9.73;;;;;;;;;;4977169;28;20064;-68
2023/09/17 02:53:56;;;;;;;16.75;9.18;;;;;;;;;;4979830;28;20030;-68
2023/09/17 02:56:22;;;;;;;17.38;10.25;;;;;;;;;;4977686;28;20035;-68
2023/09/17 02:58:47;;;;;;;16.50;9.82;;;;;;;;;;4976194;28;20050;-68
2023/09/17 03:01:18;;;;;;;17.63;9.98;;;;;;;;;;4973070;28;20043;-68
2023/09/17 03:03:45;;;;;;;18.58;9.65;;;;;;;;;;4976435;28;20038;-68
2023/09/17 03:06:11;;;;;;;17.23;10.32;;;;;;;;;;4983498;28;20452;-68
2023/09/17 03:08:41;;;;;;;18.00;9.55;;;;;;;;;;4981533;28;20035;-68
2023/09/17 03:11:12;;;;;;;20.23;9.98;;;;;;;;;;4976169;28;20035;-68
2023/09/17 03:13:39;;;;;;;18.50;10.05;;;;;;;;;;4977741;28;20045;-68
2023/09/17 03:16:05;;;;;;;20.63;9.57;;;;;;;;;;4972263;28;20551;-68
2023/09/17 03:18:30;;;;;;;16.52;9.73;;;;;;;;;;4978056;28;20034;-68
2023/09/17 03:20:56;;;;;;;18.58;10.18;;;;;;;;;;4976606;28;20142;-68
2023/09/17 03:23:21;;;;;;;14.25;9.02;;;;;;;;;;4982207;28;20030;-68
2023/09/17 03:25:46;;;;;;;18.08;9.40;;;;;;;;;;5000548;28;20146;-68
2023/09/17 03:28:12;;;;;;;17.55;9.45;;;;;;;;;;4981923;28;20042;-68
2023/09/17 03:30:37;;;;;;;18.83;9.20;;;;;;;;;;4977458;28;20057;-68
2023/09/17 03:33:03;;;;;;;17.23;10.07;;;;;;;;;;4973182;28;20034;-68
2023/09/17 03:35:29;;;;;;;18.42;9.63;;;;;;;;;;4976865;28;20413;-68
2023/09/17 03:37:54;;;;;;;16.30;8.65;;;;;;;;;;4975618;28;20610;-68
2023/09/17 03:40:19;;;;;;;17.98;9.32;;;;;;;;;;4976688;28;20074;-68
2023/09/17 03:42:46;;;;;;;18.02;9.25;;;;;;;;;;4977267;28;20138;-68
2023/09/17 03:45:13;;;;;;;16.98;8.38;;;;;;;;;;4974282;28;20030;-68
2023/09/17 03:47:40;;;;;;;16.27;8.27;;;;;;;;;;4978462;28;20551;-68
2023/09/17 03:50:08;;;;;;;13.32;8.20;;;;;;;;;;4974499;28;20578;-68
2023/09/17 03:52:35;;;;;;;20.05;10.60;;;;;;;;;;4972491;28;20049;-68
2023/09/17 03:55:01;;;;;;;18.10;10.43;;;;;;;;;;4976170;28;20044;-68
2023/09/17 03:57:28;;;;;;;18.48;10.43;;;;;;;;;;4974289;28;20658;-68
2023/09/17 03:59:54;;;;;;;19.17;10.85;;;;;;;;;;4977108;28;20038;-68
2023/09/17 04:02:20;;;;;;;23.83;11.15;;;;;;;;;;4975669;28;20073;-68
2023/09/17 04:04:46;;;;;;;20.27;11.20;;;;;;;;;;4978977;28;20576;-68
2023/09/17 04:07:12;;;;;;;21.10;11.25;;;;;;;;;;4981771;28;20552;-68
2023/09/17 04:09:37;;;;;;;24.55;11.23;;;;;;;;;;4986087;28;20038;-68
2023/09/17 04:12:04;;;;;;;19.33;11.48;;;;;;;;;;4984314;28;20025;-68
2023/09/17 04:14:31;;;;;;;23.77;11.05;;;;;;;;;;4975528;28;20504;-68
2023/09/17 04:16:59;;;;;;;20.02;11.05;;;;;;;;;;4972056;28;20049;-68
2023/09/17 04:19:24;;;;;;;24.42;12.20;;;;;;;;;;4981707;28;20088;-68
2023/09/17 04:21:50;;;;;;;20.58;10.68;;;;;;;;;;4975341;28;20038;-68
2023/09/17 04:24:16;;;;;;;24.38;11.35;;;;;;;;;;4978468;28;20030;-68
2023/09/17 04:26:41;;;;;;;23.65;11.90;;;;;;;;;;4975710;28;20113;-68
2023/09/17 04:29:07;;;;;;;25.00;12.15;;;;;;;;;;4973110;28;20038;-68
2023/09/17 04:31:32;;;;;;;23.88;12.13;;;;;;;;;;4970895;28;20039;-67
2023/09/17 04:33:58;;;;;;;23.77;12.50;;;;;;;;;;4983976;28;20073;-68
2023/09/17 04:36:23;;;;;;;27.25;12.13;;;;;;;;;;4972754;28;20046;-68
2023/09/17 04:38:49;;;;;;;25.73;12.30;;;;;;;;;;4975461;28;20027;-68
2023/09/17 04:41:14;;;;;;;23.27;11.90;;;;;;;;;;4972466;28;20047;-68
2023/09/17 04:43:40;;;;;;;26.45;13.52;;;;;;;;;;4977415;28;20705;-68
2023/09/17 04:46:05;;;;;;;25.90;13.73;;;;;;;;;;4979635;28;20046;-68
2023/09/17 04:48:31;;;;;;;24.60;12.23;;;;;;;;;;4977339;28;20585;-68
2023/09/17 04:50:56;;;;;;;28.30;12.82;;;;;;;;;;4974968;28;20019;-68
2023/09/17 04:53:21;;;;;;;26.27;13.35;;;;;;;;;;4974942;28;20044;-68
2023/09/17 04:55:47;;;;;;;28.27;12.80;;;;;;;;;;4970210;28;20126;-68
2023/09/17 04:58:14;;;;;;;24.27;12.82;;;;;;;;;;4977249;28;20035;-68
2023/09/17 05:00:39;;;;;;;23.38;12.70;;;;;;;;;;4972732;28;20806;-68
2023/09/17 05:03:05;;;;;;;28.25;12.05;;;;;;;;;;4973634;28;20027;-68
2023/09/17 05:05:30;;;;;;;28.15;12.20;;;;;;;;;;4977399;28;20052;-68
2023/09/17 05:07:56;;;;;;;27.15;12.18;;;;;;;;;;4975660;28;20561;-68
2023/09/17 05:10:21;;;;;;;26.55;12.18;;;;;;;;;;4976152;28;20093;-68
2023/09/17 05:12:47;;;;;;;28.45;12.75;;;;;;;;;;4977478;28;20039;-68
2023/09/17 05:15:12;;;;;;;25.20;12.25;;;;;;;;;;4973736;28;20026;-68
2023/09/17 05:17:37;;;;;;;28.10;13.07;;;;;;;;;;4975920;28;20029;-68
2023/09/17 05:20:06;;;;;;;20.73;11.70;;;;;;;;;;4980552;28;20046;-68
2023/09/17 05:22:33;;;;;;;24.45;11.90;;;;;;;;;;4975547;28;20047;-68
2023/09/17 05:24:58;;;;;;;23.85;12.63;;;;;;;;;;4970099;28;20026;-68
2023/09/17 05:27:24;;;;;;;24.65;12.25;;;;;;;;;;4975715;28;20042;-68
2023/09/17 05:29:50;;;;;;;21.65;11.48;;;;;;;;;;4975827;28;20052;-68
2023/09/17 05:32:16;;;;;;;19.63;10.65;;;;;;;;;;4976442;28;20471;-68
2023/09/17 05:34:42;;;;;;;26.08;11.48;;;;;;;;;;4984521;28;20041;-68
2023/09/17 05:37:07;;;;;;;22.38;10.48;;;;;;;;;;4983555;28;20038;-68
2023/09/17 05:39:33;;;;;;;20.85;10.50;;;;;;;;;;4972517;28;20073;-68
2023/09/17 05:41:58;;;;;;;23.38;11.75;;;;;;;;;;4980536;28;20052;-68
2023/09/17 05:44:24;;;;;;;20.15;10.45;;;;;;;;;;4973452;28;20060;-68
2023/09/17 05:46:49;;;;;;;23.30;11.63;;;;;;;;;;4973838;28;20034;-68
2023/09/17 05:49:15;;;;;;;21.38;10.82;;;;;;;;;;4976576;28;20204;-68
2023/09/17 05:51:40;;;;;;;22.83;10.77;;;;;;;;;;4976648;28;20046;-68
2023/09/17 05:54:05;;;;;;;21.90;11.13;;;;;;;;;;4972494;28;20023;-68
2023/09/17 05:56:31;;;;;;;23.15;11.75;;;;;;;;;;4975027;28;20495;-68
2023/09/17 05:58:56;;;;;;;26.65;12.43;;;;;;;;;;4973923;28;20039;-68
2023/09/17 06:01:22;;;;;;;21.98;11.73;;;;;;;;;;4975020;28;20046;-68
2023/09/17 06:03:47;;;;;;;26.55;12.18;;;;;;;;;;4969511;28;20049;-68
2023/09/17 06:06:12;;;;;;;23.52;12.05;;;;;;;;;;4980426;28;20032;-68
2023/09/17 06:08:38;;;;;;;23.85;12.15;;;;;;;;;;4974366;28;20474;-68
2023/09/17 06:11:03;;;;;;;23.73;12.85;;;;;;;;;;4970051;28;20027;-68
2023/09/17 06:13:28;;;;;;;26.45;13.18;;;;;;;;;;4976913;28;20038;-68
2023/09/17 06:15:54;;;;;;;28.30;12.77;;;;;;;;;;4973387;28;20054;-68
2023/09/17 06:18:19;;;;;;;29.15;13.50;;;;;;;;;;4980437;28;20537;-68
2023/09/17 06:20:45;;;;;;;29.30;14.32;;;;;;;;;;4971688;28;20030;-68
2023/09/17 06:23:11;;;;;;;24.13;12.00;;;;;;;;;;4976599;28;20041;-68
2023/09/17 06:25:36;;;;;;;26.30;13.35;;;;;;;;;;4979493;28;20046;-68
2023/09/17 06:28:02;;;;;;;23.50;12.75;;;;;;;;;;4980174;28;20065;-68
2023/09/17 06:30:27;;;;;;;27.63;12.77;;;;;;;;;;4976138;28;20043;-68
2023/09/17 06:32:52;;;;;;;26.17;13.05;;;;;;;;;;4978278;28;20033;-68
2023/09/17 06:35:18;;;;;;;25.50;11.88;;;;;;;;;;4977490;28;20041;-68
2023/09/17 06:37:43;;;;;;;23.95;11.07;;;;;;;;;;4984217;28;20053;-68
2023/09/17 06:40:10;;;;;;;24.42;10.93;;;;;;;;;;4974542;28;20046;-68
2023/09/17 06:42:36;;;;;;;22.00;10.95;;;;;;;;;;4978713;28;20069;-68
2023/09/17 06:45:01;;;;;;;21.92;10.52;;;;;;;;;;4974985;28;20499;-68
2023/09/17 06:47:27;;;;;;;20.33;10.20;;;;;;;;;;4982063;28;20399;-68
2023/09/17 06:49:52;;;;;;;18.15;9.75;;;;;;;;;;4980034;28;20050;-68
2023/09/17 06:52:18;;;;;;;24.13;10.60;;;;;;;;;;4976206;28;20035;-68
2023/09/17 06:54:43;;;;;;;21.60;10.55;;;;;;;;;;4976432;28;20050;-68
2023/09/17 06:57:09;;;;;;;16.05;9.50;;;;;;;;;;4977608;28;20050;-68
2023/09/17 06:59:35;;;;;;;17.92;9.50;;;;;;;;;;4983641;28;20026;-68
2023/09/17 07:02:00;;;;;;;17.25;9.93;;;;;;;;;;4985886;28;20039;-68
2023/09/17 07:04:26;;;;;;;16.63;8.93;;;;;;;;;;4983256;28;20034;-68
2023/09/17 07:06:51;;;;;;;20.33;9.40;;;;;;;;;;4981855;28;20035;-68
2023/09/17 07:09:17;;;;;;;16.77;8.63;;;;;;;;;;4975748;28;20053;-68
2023/09/17 07:11:43;;;;;;;17.75;9.02;;;;;;;;;;4983010;28;20034;-68
2023/09/17 07:14:11;;;;;;;16.40;9.23;;;;;;;;;;4976000;28;20431;-68
2023/09/17 07:16:37;;;;;;;15.57;9.05;;;;;;;;;;4976378;28;20035;-68
2023/09/17 07:19:04;;;;;;;17.25;9.70;;;;;;;;;;4983043;28;20585;-68
2023/09/17 07:21:30;;;;;;;18.33;9.50;;;;;;;;;;4982442;28;20133;-68
2023/09/17 07:23:56;;;;;;;16.02;9.40;;;;;;;;;;4972503;28;20056;-68
2023/09/17 07:26:21;;;;;;;17.73;9.38;;;;;;;;;;4978798;28;20611;-68
2023/09/17 07:28:47;;;;;;;19.92;9.55;;;;;;;;;;4977545;28;20038;-68
2023/09/17 07:31:13;;;;;;;16.55;9.30;;;;;;;;;;4974148;28;20035;-68
2023/09/17 07:33:39;;;;;;;18.65;9.38;;;;;;;;;;4975507;28;20043;-68
2023/09/17 07:36:06;;;;;;;19.48;10.20;;;;;;;;;;4992620;28;20046;-68
2023/09/17 07:38:32;;;;;;;17.65;9.45;;;;;;;;;;4973021;28;20030;-68
2023/09/17 07:40:57;;;;;;;19.23;10.27;;;;;;;;;;4979562;28;20051;-68
2023/09/17 07:43:22;;;;;;;18.33;9.40;;;;;;;;;;4979868;28;20504;-68
2023/09/17 07:45:48;;;;;;;21.95;9.68;;;;;;;;;;4980663;28;20054;-66
2023/09/17 07:48:13;;;;;;;20.58;10.32;;;;;;;;;;4971672;28;20388;-68
2023/09/17 07:50:40;;;;;;;20.08;10.27;;;;;;;;;;4977389;28;20025;-68
2023/09/17 07:53:06;;;;;;;19.92;10.32;;;;;;;;;;4971976;28;20066;-68
2023/09/17 07:55:31;;;;;;;23.42;9.60;;;;;;;;;;4971229;28;20030;-68
2023/09/17 07:57:56;;;;;;;24.48;10.30;;;;;;;;;;4974332;28;20563;-68
2023/09/17 08:00:22;;;;;;;21.60;10.25;;;;;;;;;;4972836;28;20038;-68
2023/09/17 08:02:48;;;;;;;20.08;10.35;;;;;;;;;;4978243;28;20751;-68
2023/09/17 08:05:13;;;;;;;19.05;9.85;;;;;;;;;;4979033;28;20093;-68
2023/09/17 08:07:41;;;;;;;19.95;10.02;;;;;;;;;;4971500;28;20034;-68
2023/09/17 08:10:07;;;;;;;18.23;9.68;;;;;;;;;;4974724;28;20073;-68
2023/09/17 08:12:33;;;;;;;17.90;10.00;;;;;;;;;;4982077;28;20050;-68
2023/09/17 08:14:58;;;;;;;18.98;10.00;;;;;;;;;;4975029;28;20086;-68
2023/09/17 08:17:24;;;;;;;18.27;10.02;;;;;;;;;;4975132;28;20027;-69
2023/09/17 08:19:50;;;;;;;21.02;10.18;;;;;;;;;;4981883;28;20053;-69
2023/09/17 08:22:15;;;;;;;19.00;10.07;;;;;;;;;;4975289;28;20087;-68
2023/09/17 08:24:41;;;;;;;21.80;10.63;;;;;;;;;;4979705;28;20042;-69
2023/09/17 08:27:06;;;;;;;20.92;10.77;;;;;;;;;;4991989;28;20034;-69
2023/09/17 08:29:33;;;;;;;22.08;10.30;;;;;;;;;;4989394;28;20054;-69
2023/09/17 08:31:59;;;;;;;21.30;10.85;;;;;;;;;;4975748;28;20058;-69
2023/09/17 08:34:25;;;;;;;20.42;11.00;;;;;;;;;;4980995;28;20125;-69
2023/09/17 08:36:50;;;;;;;22.40;10.07;;;;;;;;;;4972498;28;20043;-69
2023/09/17 08:39:16;;;;;;;18.02;10.50;;;;;;;;;;4970124;28;20130;-69
2023/09/17 08:41:42;;;;;;;18.60;10.02;;;;;;;;;;4979551;28;20519;-69
2023/09/17 08:44:08;;;;;;;16.25;8.80;;;;;;;;;;4974688;28;20034;-69
2023/09/17 08:46:35;;;;;;;17.38;8.60;;;;;;;;;;4974694;28;20474;-69
2023/09/17 08:49:01;;;;;;;13.88;8.38;;;;;;;;;;4977055;28;20034;-69
2023/09/17 08:51:30;;;;;;;13.40;7.68;;;;;;;;;;4975442;28;20697;-69
2023/09/17 08:53:59;;;;;;;13.40;7.80;;;;;;;;;;4980125;28;20113;-69
2023/09/17 08:56:26;;;;;;;13.02;8.20;;;;;;;;;;4972294;28;20590;-69
2023/09/17 08:58:55;;;;;;;15.95;8.15;;;;;;;;;;4974781;28;20073;-68
2023/09/17 09:01:24;;;;;;;17.60;8.10;;;;;;;;;;4973029;28;20092;-69
2023/09/17 09:03:51;;;;;;;15.75;7.85;;;;;;;;;;4972882;28;20045;-69
2023/09/17 09:06:19;;;;;;;13.45;7.78;;;;;;;;;;4971936;28;20039;-70
2023/09/17 09:08:45;;;;;;;12.38;7.60;;;;;;;;;;4975538;28;20097;-69
2023/09/17 09:11:11;;;;;;;13.65;7.85;;;;;;;;;;4976496;28;20038;-70
2023/09/17 09:13:37;;;;;;;13.57;8.10;;;;;;;;;;4976076;28;20046;-69
2023/09/17 09:16:03;;;;;;;15.55;8.63;;;;;;;;;;4971225;28;20401;-69
2023/09/17 09:18:29;;;;;;;15.13;7.90;;;;;;;;;;4977319;28;20057;-70
2023/09/17 09:20:55;;;;;;;15.70;7.90;;;;;;;;;;4979888;28;20030;-70
2023/09/17 09:23:21;;;;;;;12.77;7.97;;;;;;;;;;4975187;28;20043;-70
2023/09/17 09:25:46;;;;;;;14.65;8.48;;;;;;;;;;4980543;28;20477;-70
2023/09/17 09:28:12;;;;;;;15.30;8.45;;;;;;;;;;4997026;28;20590;-69
2023/09/17 09:30:37;;;;;;;13.10;8.07;;;;;;;;;;4973200;28;20814;-69
2023/09/17 09:33:03;;;;;;;14.43;8.80;;;;;;;;;;4972606;28;20074;-70
2023/09/17 09:35:30;;;;;;;13.60;7.88;;;;;;;;;;4974671;28;20080;-70
2023/09/17 09:37:56;;;;;;;16.50;8.10;;;;;;;;;;4982838;28;20141;-69
2023/09/17 09:40:24;;;;;;;12.77;7.78;;;;;;;;;;4975824;28;20050;-69
2023/09/17 09:42:49;;;;;;;11.23;7.25;;;;;;;;;;4974848;28;20030;-70
2023/09/17 09:45:15;;;;;;;12.65;7.35;;;;;;;;;;4973778;28;20484;-69
2023/09/17 09:47:47;;;;;;;12.40;8.02;;;;;;;;;;4970914;28;20038;-69
2023/09/17 09:50:27;;;;;;;15.05;8.20;;;;;;;;;;4971029;28;20416;-68
2023/09/17 09:52:54;;;;;;;13.25;7.88;;;;;;;;;;4985947;28;20069;-67
2023/09/17 09:55:27;;;;;;;14.23;8.85;;;;;;;;;;4975635;28;20536;-69
2023/09/17 09:57:53;;;;;;;15.10;8.35;;;;;;;;;;4976928;28;20042;-69
2023/09/17 10:00:26;;;;;;;17.48;9.77;;;;;;;;;;4972459;28;20618;-69
2023/09/17 10:02:54;;;;;;;15.63;9.65;;;;;;;;;;4972056;28;20561;-69
2023/09/17 10:05:37;;;;;;;17.85;10.45;;;;;;;;;;4974031;28;20054;-68
2023/09/17 10:08:04;;;;;;;22.23;11.05;;;;;;;;;;4974387;28;20046;-68
2023/09/17 10:10:30;;;;;;;21.80;12.32;;;;;;;;;;4976443;28;20041;-68
2023/09/17 10:12:55;;;;;;;30.23;14.02;;;;;;;;;;4979998;28;20381;-68
2023/09/17 10:15:21;;;;;;;27.67;13.93;;;;;;;;;;4980413;28;20520;-68
2023/09/17 10:17:48;;;;;;;30.55;15.93;;;;;;;;;;4977284;28;20566;-68
2023/09/17 10:20:15;;;;;;;41.08;17.60;;;;;;;;;;4977389;28;20041;-68
2023/09/17 10:22:42;;;;;;;40.97;19.92;;;;;;;;;;4982198;28;20042;-68
2023/09/17 10:25:09;;;;;;;53.80;22.67;;;;;;;;;;4976714;28;20162;-68
2023/09/17 10:27:36;;;;;;;49.28;22.40;;;;;;;;;;4977691;28;20049;-68
2023/09/17 10:30:03;;;;;;;47.80;22.88;;;;;;;;;;4976438;28;20162;-68
2023/09/17 10:32:31;;;;;;;49.40;22.98;;;;;;;;;;4983845;28;20084;-67
2023/09/17 10:34:59;;;;;;;50.38;22.88;;;;;;;;;;4977368;28;20518;-67
2023/09/17 10:37:27;;;;;;;49.15;22.75;;;;;;;;;;4978002;28;20092;-67
2023/09/17 10:39:54;;;;;;;48.65;22.20;;;;;;;;;;4977810;28;20101;-67
2023/09/17 10:42:20;;;;;;;50.75;23.45;;;;;;;;;;4978783;28;20076;-67
2023/09/17 10:44:47;;;;;;;50.47;22.90;;;;;;;;;;4973283;28;20081;-67
2023/09/17 10:47:14;;;;;;;46.30;22.67;;;;;;;;;;4975226;28;20135;-67
2023/09/17 10:49:40;;;;;;;46.88;21.90;;;;;;;;;;4976100;28;20042;-67
2023/09/17 10:52:09;;;;;;;42.55;22.00;;;;;;;;;;4976728;28;20046;-67
2023/09/17 10:54:35;;;;;;;41.28;20.02;;;;;;;;;;4977963;28;20043;-67
2023/09/17 10:57:06;;;;;;;42.50;21.83;;;;;;;;;;4979728;28;20024;-68
2023/09/17 10:59:33;;;;;;;39.80;20.05;;;;;;;;;;4980683;28;20030;-67
2023/09/17 11:01:59;;;;;;;38.45;19.65;;;;;;;;;;4976531;28;20042;-68
2023/09/17 11:04:25;;;;;;;36.13;19.15;;;;;;;;;;4975472;28;20031;-68
2023/09/17 11:06:52;;;;;;;35.33;18.88;;;;;;;;;;4975103;28;20038;-68
2023/09/17 11:09:19;;;;;;;38.83;20.05;;;;;;;;;;4975633;28;20019;-68
2023/09/17 11:11:44;;;;;;;34.28;18.60;;;;;;;;;;4973680;28;20022;-68
2023/09/17 11:14:10;;;;;;;35.33;18.88;;;;;;;;;;4977173;28;20398;-68
2023/09/17 11:16:36;;;;;;;33.50;18.73;;;;;;;;;;4977995;28;20455;-68
2023/09/17 11:19:21;;;;;;;32.05;17.63;;;;;;;;;;4981880;28;20042;-68
2023/09/17 11:22:08;;;;;;;32.00;16.83;;;;;;;;;;4978253;28;20046;-68
2023/09/17 11:24:33;;;;;;;31.85;17.50;;;;;;;;;;4977049;28;20038;-68
2023/09/17 11:27:04;;;;;;;29.08;17.02;;;;;;;;;;4974945;28;20436;-69
2023/09/17 11:29:44;;;;;;;27.95;16.27;;;;;;;;;;4978555;28;20680;-68
2023/09/17 11:32:10;;;;;;;28.48;15.98;;;;;;;;;;4977384;28;20106;-68
2023/09/17 11:34:38;;;;;;;29.73;16.67;;;;;;;;;;4978220;28;20045;-68
2023/09/17 11:37:04;;;;;;;29.27;16.42;;;;;;;;;;4974001;28;20042;-69
2023/09/17 11:39:33;;;;;;;25.35;15.18;;;;;;;;;;4977614;28;20130;-69
2023/09/17 11:42:03;;;;;;;30.95;15.95;;;;;;;;;;4973401;28;20030;-69
2023/09/17 11:44:35;;;;;;;27.83;16.05;;;;;;;;;;4974281;28;20019;-68
2023/09/17 11:47:01;;;;;;;27.42;16.17;;;;;;;;;;4979005;28;20120;-69
2023/09/17 11:49:28;;;;;;;27.15;15.98;;;;;;;;;;4978823;28;20141;-69
2023/09/17 11:51:57;;;;;;;26.52;16.13;;;;;;;;;;4976998;28;20065;-69
2023/09/17 11:54:25;;;;;;;26.02;15.65;;;;;;;;;;4973324;28;20519;-68
2023/09/17 11:56:53;;;;;;;34.88;16.55;;;;;;;;;;4975117;28;20027;-68
2023/09/17 11:59:20;;;;;;;27.25;16.48;;;;;;;;;;4975122;28;20035;-68
2023/09/17 12:01:46;;;;;;;31.95;16.98;;;;;;;;;;4975847;28;20068;-68
2023/09/17 12:04:12;;;;;;;31.58;17.08;;;;;;;;;;4975072;28;20078;-68
2023/09/17 12:06:43;;;;;;;25.02;14.65;;;;;;;;;;4979517;28;20138;-68
2023/09/17 12:09:31;;;;;;;24.20;14.90;;;;;;;;;;4977453;28;20456;-68
2023/09/17 12:11:57;;;;;;;25.42;13.75;;;;;;;;;;4978371;28;20489;-68
2023/09/17 12:14:23;;;;;;;21.98;13.55;;;;;;;;;;4975191;28;20042;-67
2023/09/17 12:16:49;;;;;;;20.83;13.75;;;;;;;;;;4974891;28;20038;-68
2023/09/17 12:19:17;;;;;;;21.13;13.55;;;;;;;;;;4979807;28;20547;-68
2023/09/17 12:21:44;;;;;;;21.48;13.13;;;;;;;;;;4975949;28;20054;-68
2023/09/17 12:24:40;;;;;;;20.15;13.10;;;;;;;;;;4968984;28;20121;-68
2023/09/17 12:27:34;;;;;;;18.05;11.18;;;;;;;;;;4974421;28;20168;-68
2023/09/17 12:30:02;;;;;;;17.65;11.02;;;;;;;;;;4978955;28;20022;-68
2023/09/17 12:32:30;;;;;;;18.45;10.85;;;;;;;;;;4977579;28;20045;-68
2023/09/17 12:34:57;;;;;;;13.85;9.35;;;;;;;;;;4982893;28;20153;-68
2023/09/17 12:37:23;;;;;;;15.02;9.98;;;;;;;;;;4976127;28;20069;-68
2023/09/17 12:39:58;;;;;;;14.07;8.95;;;;;;;;;;4976545;28;20054;-68
2023/09/17 12:42:24;;;;;;;15.25;9.13;;;;;;;;;;4983624;28;20046;-68
2023/09/17 12:44:50;;;;;;;14.63;9.50;;;;;;;;;;4971032;28;20042;-68
2023/09/17 12:47:16;;;;;;;14.75;9.77;;;;;;;;;;4984921;28;20065;-69
2023/09/17 12:49:42;;;;;;;18.60;10.63;;;;;;;;;;4978436;28;20253;-68
2023/09/17 12:52:08;;;;;;;16.73;11.35;;;;;;;;;;4976445;28;20065;-69
2023/09/17 12:54:33;;;;;;;18.90;11.85;;;;;;;;;;4979046;28;20046;-69
2023/09/17 12:56:59;;;;;;;20.33;12.27;;;;;;;;;;4972215;28;20536;-69
2023/09/17 12:59:37;;;;;;;18.65;12.13;;;;;;;;;;4976173;28;20034;-69
2023/09/17 13:02:04;;;;;;;14.60;9.52;;;;;;;;;;4979840;28;20057;-69
2023/09/17 13:04:38;;;;;;;13.25;8.43;;;;;;;;;;4975385;28;20054;-69
2023/09/17 13:07:06;;;;;;;13.00;9.00;;;;;;;;;;4977162;28;20054;-69
2023/09/17 13:09:32;;;;;;;13.43;8.50;;;;;;;;;;4974315;28;20045;-69
2023/09/17 13:12:00;;;;;;;12.50;9.02;;;;;;;;;;4980598;28;20182;-69
2023/09/17 13:14:25;;;;;;;12.23;8.50;;;;;;;;;;4974960;28;20034;-69
2023/09/17 13:16:52;;;;;;;13.40;8.82;;;;;;;;;;4975215;28;20097;-69
2023/09/17 13:19:17;;;;;;;12.70;8.75;;;;;;;;;;4983401;28;20128;-69
2023/09/17 13:21:43;;;;;;;11.68;7.75;;;;;;;;;;4975028;28;20108;-68
2023/09/17 13:24:09;;;;;;;13.93;8.75;;;;;;;;;;4982994;28;20029;-69
2023/09/17 13:26:35;;;;;;;9.32;7.15;;;;;;;;;;4984238;28;20049;-69
2023/09/17 13:29:00;;;;;;;10.00;7.03;;;;;;;;;;4972244;28;20042;-68
2023/09/17 13:31:26;;;;;;;8.43;5.20;;;;;;;;;;4970475;28;20042;-68
2023/09/17 13:33:51;;;;;;;5.70;4.82;;;;;;;;;;4974679;28;20587;-68
2023/09/17 13:36:17;;;;;;;7.40;5.15;;;;;;;;;;4976930;28;20030;-69
2023/09/17 13:38:43;;;;;;;6.80;4.28;;;;;;;;;;4974951;28;20051;-69
2023/09/17 13:41:09;;;;;;;4.25;3.58;;;;;;;;;;4971774;28;20047;-69
2023/09/17 13:43:34;;;;;;;7.05;3.55;;;;;;;;;;4975575;28;20047;-68
2023/09/17 13:46:01;;;;;;;3.92;3.47;;;;;;;;;;4977697;28;20038;-68
2023/09/17 13:48:28;;;;;;;4.57;3.42;;;;;;;;;;4990248;28;20114;-68
2023/09/17 13:50:53;;;;;;;9.10;4.95;;;;;;;;;;4984387;28;20042;-68
2023/09/17 13:53:19;;;;;;;5.90;3.50;;;;;;;;;;4975705;28;20407;-69
2023/09/17 13:55:45;;;;;;;5.82;3.25;;;;;;;;;;5000194;28;20042;-68
2023/09/17 13:58:12;;;;;;;5.50;3.50;;;;;;;;;;4977629;28;20599;-68
2023/09/17 14:00:37;;;;;;;4.85;3.65;;;;;;;;;;4974205;28;20066;-68
2023/09/17 14:03:08;;;;;;;5.22;3.25;;;;;;;;;;4979099;28;20109;-67
2023/09/17 14:05:34;;;;;;;3.97;3.40;;;;;;;;;;4987695;28;20041;-68
2023/09/17 14:07:59;;;;;;;4.55;3.60;;;;;;;;;;4984563;28;20530;-67
2023/09/17 14:10:26;;;;;;;4.47;3.45;;;;;;;;;;4982020;28;20053;-67
2023/09/17 14:12:51;;;;;;;4.45;3.47;;;;;;;;;;4979715;28;20039;-68
2023/09/17 14:15:17;;;;;;;6.55;4.03;;;;;;;;;;4976157;28;20077;-68
2023/09/17 14:17:42;;;;;;;5.68;4.00;;;;;;;;;;4978587;28;20468;-67
2023/09/17 14:20:09;;;;;;;4.13;3.20;;;;;;;;;;4983539;28;20039;-67
2023/09/17 14:22:35;;;;;;;4.55;3.50;;;;;;;;;;4977978;28;20054;-67